Time;durP1;ratioP1;P1;durP2;ratioP2;P2;SDS_P1;SDS_P2;PMS_P1;PMS_P2;Temp;Humidity;BMP_temperature;BMP_pressure;BME280_temperature;BME280_humidity;BME280_pressure;Samples;Min_cycle;Max_cycle;Signal;HPM_P1;HPM_P2
2023/01/02 00:00:29;;;;;;;9.20;4.60;;;5.30;57.90;;;;;;5007803;28;46103;-66
2023/01/02 00:02:55;;;;;;;7.53;4.37;;;5.30;58.00;;;;;;5008700;28;46338;-66
2023/01/02 00:05:21;;;;;;;7.93;4.33;;;5.30;58.10;;;;;;5010354;28;46371;-67
2023/01/02 00:07:46;;;;;;;7.23;4.50;;;5.20;58.30;;;;;;5006874;28;46477;-67
2023/01/02 00:10:12;;;;;;;8.10;5.07;;;5.10;58.30;;;;;;5010082;28;46382;-67
2023/01/02 00:12:38;;;;;;;10.37;5.17;;;5.00;58.70;;;;;;5007204;28;46362;-67
2023/01/02 00:15:04;;;;;;;16.43;4.63;;;5.00;58.70;;;;;;5006885;28;46398;-67
2023/01/02 00:17:29;;;;;;;7.67;4.30;;;5.00;58.70;;;;;;5006114;28;46387;-67
2023/01/02 00:19:55;;;;;;;8.13;4.30;;;5.00;58.60;;;;;;5009377;28;46650;-67
2023/01/02 00:22:21;;;;;;;12.73;4.73;;;5.00;58.50;;;;;;5008222;28;46411;-66
2023/01/02 00:24:47;;;;;;;7.60;4.27;;;5.00;58.60;;;;;;5005910;28;46436;-67
2023/01/02 00:27:14;;;;;;;7.67;4.73;;;5.10;58.60;;;;;;5008499;28;46054;-67
2023/01/02 00:29:39;;;;;;;7.77;4.37;;;5.10;58.50;;;;;;5007427;28;46436;-67
2023/01/02 00:32:05;;;;;;;9.17;4.60;;;5.10;58.40;;;;;;5007660;28;46339;-67
2023/01/02 00:34:30;;;;;;;9.37;4.70;;;5.20;57.60;;;;;;5008839;28;46425;-66
2023/01/02 00:36:56;;;;;;;10.23;4.57;;;5.40;58.60;;;;;;5009850;28;46368;-67
2023/01/02 00:39:22;;;;;;;7.57;4.47;;;5.10;58.30;;;;;;5008709;28;47218;-67
2023/01/02 00:41:47;;;;;;;6.73;4.03;;;5.10;58.50;;;;;;5011457;28;46243;-66
2023/01/02 00:44:13;;;;;;;5.70;3.87;;;;;;;;;;5009094;28;46421;-67
2023/01/02 00:46:39;;;;;;;8.17;3.73;;;5.00;57.40;;;;;;5009582;28;46548;-67
2023/01/02 00:49:04;;;;;;;8.87;3.90;;;5.00;58.50;;;;;;5011507;28;46430;-67
2023/01/02 00:51:30;;;;;;;8.10;4.03;;;5.00;58.60;;;;;;5010525;28;46459;-67
2023/01/02 00:53:56;;;;;;;8.77;3.60;;;5.00;58.60;;;;;;5011170;28;46492;-67
2023/01/02 00:56:21;;;;;;;10.47;4.10;;;4.90;58.60;;;;;;5011276;28;46355;-67
2023/01/02 00:58:47;;;;;;;9.60;4.60;;;4.80;58.90;;;;;;5011042;28;46189;-67
2023/01/02 01:01:13;;;;;;;8.70;4.00;;;4.80;58.80;;;;;;5011474;28;46385;-67
2023/01/02 01:03:42;;;;;;;9.67;4.30;;;4.80;58.70;;;;;;5011260;28;46510;-67
2023/01/02 01:06:09;;;;;;;5.63;3.77;;;4.80;58.80;;;;;;5010712;28;46380;-67
2023/01/02 01:08:36;;;;;;;6.63;3.53;;;4.80;58.80;;;;;;5010181;28;46485;-67
2023/01/02 01:11:12;;;;;;;6.80;4.07;;;4.80;58.80;;;;;;5016570;28;46792;-67
2023/01/02 01:13:39;;;;;;;6.37;3.53;;;4.80;58.60;;;;;;5011862;28;46421;-67
2023/01/02 01:16:09;;;;;;;7.47;3.80;;;4.80;58.60;;;;;;5011713;28;46348;-67
2023/01/02 01:18:36;;;;;;;6.83;3.93;;;4.70;58.60;;;;;;5010347;28;46447;-67
2023/01/02 01:21:16;;;;;;;4.75;3.08;;;4.80;58.70;;;;;;5010321;28;46369;-67
2023/01/02 01:23:42;;;;;;;4.90;3.50;;;4.70;58.40;;;;;;5009594;28;46434;-67
2023/01/02 01:26:10;;;;;;;6.40;3.60;;;4.60;58.70;;;;;;5011566;28;46430;-67
2023/01/02 01:28:36;;;;;;;6.70;4.17;;;4.60;58.60;;;;;;5010085;28;46229;-67
2023/01/02 01:31:07;;;;;;;5.00;3.08;;;4.60;58.70;;;;;;5009893;28;46368;-67
2023/01/02 01:33:33;;;;;;;6.23;3.40;;;4.60;58.60;;;;;;5009229;28;47411;-67
2023/01/02 01:36:08;;;;;;;6.80;3.67;;;4.70;58.50;;;;;;5013022;28;45800;-67
2023/01/02 01:38:34;;;;;;;7.17;3.70;;;4.80;58.40;;;;;;5011822;28;48297;-66
2023/01/02 01:41:01;;;;;;;7.60;3.83;;;4.90;58.10;;;;;;5010276;28;46403;-67
2023/01/02 01:43:57;;;;;;;5.43;3.17;;;4.90;58.00;;;;;;5007337;28;46586;-66
2023/01/02 01:46:37;;;;;;;4.90;3.30;;;4.90;58.20;;;;;;5011873;28;46575;-67
2023/01/02 01:49:11;;;;;;;5.40;3.53;;;4.90;58.10;;;;;;5011574;28;46451;-68
2023/01/02 01:52:00;;;;;;;4.60;3.20;;;4.90;58.10;;;;;;5007264;28;46363;-68
2023/01/02 01:54:41;;;;;;;7.40;3.53;;;4.90;57.20;;;;;;5008797;28;46414;-67
2023/01/02 01:57:45;;;;;;;6.77;3.73;;;4.90;58.10;;;;;;5011876;28;46426;-67
2023/01/02 02:00:11;;;;;;;6.83;3.53;;;4.90;58.30;;;;;;4950174;28;47066;-67
2023/01/02 02:02:41;;;;;;;7.65;3.33;;;5.10;58.30;;;;;;4997681;28;46466;-67
2023/01/02 02:05:10;;;;;;;5.50;3.70;;;5.20;58.00;;;;;;5008807;28;46484;-67
2023/01/02 02:07:42;;;;;;;12.63;3.53;;;5.40;57.90;;;;;;5010401;28;46490;-67
2023/01/02 02:10:09;;;;;;;6.97;3.77;;;5.60;58.10;;;;;;5010490;28;46438;-67
2023/01/02 02:12:35;;;;;;;7.00;3.33;;;5.70;58.10;;;;;;5010999;28;46766;-67
2023/01/02 02:15:01;;;;;;;6.07;3.37;;;5.80;57.90;;;;;;5006752;28;46501;-67
2023/01/02 02:17:36;;;;;;;4.83;3.20;;;5.90;58.10;;;;;;5009733;28;46619;-67
2023/01/02 02:20:35;;;;;;;10.90;3.43;;;5.80;58.00;;;;;;5011525;28;46888;-67
2023/01/02 02:23:28;;;;;;;5.73;2.80;;;5.70;58.30;;;;;;5005791;28;46436;-67
2023/01/02 02:26:15;;;;;;;5.50;2.97;;;5.80;58.40;;;;;;4996824;28;46546;-66
2023/01/02 02:29:01;;;;;;;5.23;2.90;;;5.80;58.30;;;;;;5009962;28;46340;-67
2023/01/02 02:31:27;;;;;;;4.07;2.57;;;6.00;58.30;;;;;;5010335;28;46534;-67
2023/01/02 02:34:13;;;;;;;3.80;2.47;;;6.10;59.00;;;;;;5008156;28;46500;-68
2023/01/02 02:36:54;;;;;;;8.90;2.50;;;6.10;58.20;;;;;;5010686;28;46581;-68
2023/01/02 02:39:35;;;;;;;5.50;2.60;;;6.20;58.40;;;;;;5011895;28;47483;-66
2023/01/02 02:42:38;;;;;;;4.67;2.70;;;6.20;58.40;;;;;;5010997;28;46319;-67
2023/01/02 02:45:21;;;;;;;4.57;2.80;;;6.10;58.40;;;;;;5007735;28;45960;-67
2023/01/02 02:48:19;;;;;;;6.23;2.83;;;6.10;58.50;;;;;;5008987;28;46357;-67
2023/01/02 02:51:03;;;;;;;5.43;3.00;;;6.10;58.60;;;;;;5008811;28;46466;-66
2023/01/02 02:53:35;;;;;;;10.20;3.77;;;6.20;58.40;;;;;;5008857;28;48018;-67
2023/01/02 02:56:04;;;;;;;7.80;3.27;;;6.30;58.30;;;;;;5008057;28;45879;-67
2023/01/02 02:58:31;;;;;;;5.50;3.07;;;6.40;58.30;;;;;;5008218;28;46507;-67
2023/01/02 03:01:15;;;;;;;4.53;2.27;;;6.50;58.10;;;;;;5008644;28;45901;-67
2023/01/02 03:03:41;;;;;;;3.53;2.10;;;6.60;57.70;;;;;;5006976;28;46540;-67
2023/01/02 03:06:30;;;;;;;5.53;2.63;;;6.70;57.70;;;;;;5008248;28;46386;-67
2023/01/02 03:09:15;;;;;;;3.53;2.03;;;6.70;57.40;;;;;;5009437;28;46362;-68
2023/01/02 03:11:47;;;;;;;3.40;2.17;;;6.70;57.50;;;;;;5010974;28;46348;-67
2023/01/02 03:14:39;;;;;;;3.40;2.10;;;6.60;57.70;;;;;;5009720;28;46963;-67
2023/01/02 03:17:17;;;;;;;4.20;2.30;;;6.50;57.90;;;;;;5006435;28;45912;-67
2023/01/02 03:19:48;;;;;;;3.03;2.10;;;6.40;58.00;;;;;;5008769;28;45866;-67
2023/01/02 03:22:18;;;;;;;3.70;2.10;;;6.50;58.30;;;;;;5007785;28;46393;-67
2023/01/02 03:24:46;;;;;;;4.23;2.20;;;6.50;58.30;;;;;;5008892;28;46687;-67
2023/01/02 03:27:17;;;;;;;4.57;2.07;;;6.40;58.30;;;;;;5009548;28;46387;-67
2023/01/02 03:29:47;;;;;;;3.20;2.27;;;6.40;58.20;;;;;;5010238;28;46574;-67
2023/01/02 03:32:23;;;;;;;4.20;2.40;;;6.40;58.20;;;;;;5007306;28;46471;-67
2023/01/02 03:34:50;;;;;;;3.40;2.13;;;6.40;58.20;;;;;;5004750;28;48352;-67
2023/01/02 03:37:22;;;;;;;4.57;2.30;;;6.30;58.20;;;;;;5010283;28;46395;-67
2023/01/02 03:39:53;;;;;;;4.50;2.13;;;6.30;58.30;;;;;;5010369;28;46427;-67
2023/01/02 03:42:22;;;;;;;4.00;2.30;;;6.20;58.30;;;;;;5005734;28;46366;-67
2023/01/02 03:45:13;;;;;;;3.77;2.00;;;6.10;58.60;;;;;;5012183;28;47114;-66
2023/01/02 03:47:51;;;;;;;5.70;2.47;;;6.10;59.70;;;;;;5009065;28;45824;-67
2023/01/02 03:50:23;;;;;;;3.47;1.83;;;6.00;58.80;;;;;;5007750;28;46453;-67
2023/01/02 03:52:49;;;;;;;2.63;1.97;;;6.00;58.70;;;;;;5009527;28;46755;-67
2023/01/02 03:55:16;;;;;;;4.07;1.80;;;6.00;58.60;;;;;;5011786;28;46345;-67
2023/01/02 03:58:18;;;;;;;2.87;2.17;;;6.10;58.50;;;;;;5008863;28;46375;-67
2023/01/02 04:00:54;;;;;;;4.40;2.37;;;6.10;58.20;;;;;;5008562;28;46437;-67
2023/01/02 04:03:27;;;;;;;5.20;2.10;;;6.20;58.30;;;;;;5006814;28;46387;-67
2023/01/02 04:06:05;;;;;;;4.30;2.47;;;6.30;58.20;;;;;;5007398;28;46491;-67
2023/01/02 04:08:40;;;;;;;4.53;2.57;;;6.30;58.00;;;;;;5007793;28;46485;-67
2023/01/02 04:11:07;;;;;;;3.70;1.97;;;6.40;58.30;;;;;;5010474;28;46371;-67
2023/01/02 04:13:43;;;;;;;4.60;2.17;;;6.40;58.40;;;;;;5006432;28;46280;-67
2023/01/02 04:16:13;;;;;;;4.73;2.43;;;6.40;58.50;;;;;;5012334;28;46519;-67
2023/01/02 04:18:42;;;;;;;4.90;2.23;;;6.40;58.60;;;;;;5009964;28;46601;-67
2023/01/02 04:21:14;;;;;;;4.70;2.10;;;6.30;57.50;;;;;;5011343;28;46614;-67
2023/01/02 04:23:44;;;;;;;5.03;1.90;;;6.20;58.70;;;;;;5014013;28;46461;-67
2023/01/02 04:26:15;;;;;;;3.07;2.10;;;6.10;58.80;;;;;;5011554;28;46421;-66
2023/01/02 04:28:41;;;;;;;3.90;2.20;;;5.90;58.90;;;;;;5012401;28;46427;-67
2023/01/02 04:31:09;;;;;;;5.53;2.30;;;5.90;59.00;;;;;;5010824;28;46469;-67
2023/01/02 04:33:39;;;;;;;4.37;2.17;;;5.90;59.00;;;;;;5015449;28;46406;-67
2023/01/02 04:36:13;;;;;;;4.40;2.40;;;5.90;58.90;;;;;;5011859;28;46793;-66
2023/01/02 04:38:41;;;;;;;4.03;2.10;;;5.90;59.20;;;;;;5011660;28;45775;-67
2023/01/02 04:41:07;;;;;;;3.77;2.10;;;5.80;59.10;;;;;;5013410;28;46425;-67
2023/01/02 04:43:33;;;;;;;3.40;2.00;;;5.70;59.00;;;;;;5011143;28;46300;-67
2023/01/02 04:45:58;;;;;;;5.47;2.50;;;5.70;59.20;;;;;;5008958;28;46477;-67
2023/01/02 04:48:24;;;;;;;6.10;1.93;;;5.40;59.70;;;;;;5010368;28;46366;-67
2023/01/02 04:50:50;;;;;;;5.73;2.23;;;5.30;60.10;;;;;;5010708;28;46687;-68
2023/01/02 04:53:15;;;;;;;4.00;2.27;;;5.20;60.50;;;;;;5011217;28;46363;-68
2023/01/02 04:55:41;;;;;;;5.10;2.60;;;5.20;60.80;;;;;;5010383;28;47485;-67
2023/01/02 04:58:07;;;;;;;4.20;2.37;;;5.20;60.50;;;;;;5011706;28;45893;-67
2023/01/02 05:00:33;;;;;;;3.30;2.33;;;5.30;60.40;;;;;;5012232;28;46446;-67
2023/01/02 05:03:01;;;;;;;7.23;2.00;;;5.30;60.30;;;;;;5013957;28;46349;-67
2023/01/02 05:05:27;;;;;;;4.60;2.20;;;5.30;60.20;;;;;;5008838;28;46687;-67
2023/01/02 05:07:52;;;;;;;5.00;2.87;;;5.30;60.20;;;;;;5011679;28;45783;-67
2023/01/02 05:10:18;;;;;;;3.80;2.33;;;5.30;60.20;;;;;;5010413;28;46426;-68
2023/01/02 05:12:44;;;;;;;6.37;2.60;;;5.20;60.20;;;;;;5013142;28;46594;-67
2023/01/02 05:15:10;;;;;;;5.37;3.00;;;5.20;60.10;;;;;;5010125;28;46390;-67
2023/01/02 05:17:37;;;;;;;4.10;2.77;;;5.20;60.20;;;;;;5009974;28;47041;-68
2023/01/02 05:20:05;;;;;;;4.90;3.27;;;5.20;60.10;;;;;;5013436;28;46531;-69
2023/01/02 05:25:15;;;;;;;6.13;3.83;;;5.20;59.90;;;;;;5009757;28;46365;-69
2023/01/02 05:27:41;;;;;;;5.10;3.33;;;5.10;59.70;;;;;;5013338;28;46497;-68
2023/01/02 05:30:08;;;;;;;8.20;3.63;;;5.20;60.00;;;;;;5010322;28;46403;-67
2023/01/02 05:32:33;;;;;;;12.53;3.40;;;5.10;59.90;;;;;;5011368;28;46006;-67
2023/01/02 05:34:59;;;;;;;5.50;3.10;;;5.20;60.00;;;;;;5010200;28;49000;-68
2023/01/02 05:37:24;;;;;;;6.43;2.80;;;5.20;59.80;;;;;;5011256;28;46458;-67
2023/01/02 05:39:50;;;;;;;6.50;3.93;;;5.20;59.90;;;;;;5009656;28;46389;-67
2023/01/02 05:42:16;;;;;;;9.90;3.30;;;5.20;59.60;;;;;;5006262;28;46466;-67
2023/01/02 05:44:41;;;;;;;4.67;2.60;;;5.20;59.50;;;;;;5007488;28;46702;-67
2023/01/02 05:47:07;;;;;;;3.97;2.87;;;5.20;59.50;;;;;;5011440;28;46593;-68
2023/01/02 05:49:33;;;;;;;5.30;2.63;;;5.20;59.40;;;;;;5009936;28;46512;-67
2023/01/02 05:51:58;;;;;;;5.67;3.00;;;5.10;59.50;;;;;;5012324;28;46357;-68
2023/01/02 05:54:24;;;;;;;4.33;2.80;;;5.10;59.40;;;;;;5009744;28;46341;-67
2023/01/02 05:56:49;;;;;;;4.83;2.83;;;5.00;59.60;;;;;;5011156;28;46332;-67
2023/01/02 05:59:15;;;;;;;4.47;2.87;;;4.90;59.70;;;;;;5009392;28;46466;-67
2023/01/02 06:01:41;;;;;;;3.40;1.87;;;4.90;59.90;;;;;;5011275;28;46268;-67
2023/01/02 06:04:07;;;;;;;6.77;3.10;;;4.60;60.00;;;;;;5010596;28;46490;-67
2023/01/02 06:06:35;;;;;;;4.13;2.50;;;4.40;60.50;;;;;;5010675;28;46445;-68
2023/01/02 06:09:01;;;;;;;4.53;2.77;;;4.30;60.50;;;;;;5011439;28;46335;-68
2023/01/02 06:11:27;;;;;;;5.80;2.70;;;4.20;60.50;;;;;;5011499;28;46474;-67
2023/01/02 06:13:53;;;;;;;3.90;2.60;;;4.20;60.40;;;;;;5006212;28;47955;-67
2023/01/02 06:16:19;;;;;;;8.73;2.73;;;4.20;60.40;;;;;;5012521;28;46466;-67
2023/01/02 06:18:45;;;;;;;4.60;2.83;;;4.20;60.40;;;;;;5015818;28;46320;-68
2023/01/02 06:21:13;;;;;;;4.57;2.80;;;4.20;60.40;;;;;;5008850;28;46554;-68
2023/01/02 06:23:39;;;;;;;14.93;3.67;;;4.20;60.30;;;;;;5009785;28;46698;-66
2023/01/02 06:26:08;;;;;;;3.35;2.33;;;4.30;60.00;;;;;;5006404;28;46509;-66
2023/01/02 06:28:34;;;;;;;3.70;2.37;;;4.30;59.80;;;;;;5008331;28;46642;-66
2023/01/02 06:31:01;;;;;;;5.13;2.30;;;4.40;59.50;;;;;;5010964;28;46524;-66
2023/01/02 06:33:28;;;;;;;5.63;2.13;;;4.30;59.80;;;;;;5009061;28;47118;-65
2023/01/02 06:36:02;;;;;;;3.37;2.00;;;4.20;59.80;;;;;;5008404;28;46465;-67
2023/01/02 06:38:28;;;;;;;3.60;2.20;;;4.10;59.80;;;;;;5008897;28;46408;-67
2023/01/02 06:40:58;;;;;;;4.37;2.40;;;4.20;59.90;;;;;;5010901;28;46469;-67
2023/01/02 06:43:25;;;;;;;4.40;2.30;;;4.10;59.70;;;;;;5011169;28;46415;-65
2023/01/02 06:45:51;;;;;;;4.00;2.20;;;4.10;60.80;;;;;;5011107;28;46532;-67
2023/01/02 06:48:17;;;;;;;4.90;1.90;;;4.10;59.60;;;;;;5013310;28;45753;-67
2023/01/02 06:50:43;;;;;;;4.93;2.73;;;4.10;59.60;;;;;;5011638;28;46598;-67
2023/01/02 06:53:10;;;;;;;3.43;2.10;;;4.00;59.80;;;;;;5005376;28;47385;-72
2023/01/02 06:55:35;;;;;;;4.63;2.47;;;4.10;59.90;;;;;;5007179;28;46459;-66
2023/01/02 06:58:01;;;;;;;3.63;2.30;;;4.00;60.00;;;;;;5010658;28;46522;-65
2023/01/02 07:00:26;;;;;;;6.10;2.40;;;4.00;59.80;;;;;;5007780;28;46678;-66
2023/01/02 07:02:52;;;;;;;5.43;2.47;;;4.10;59.60;;;;;;5007556;28;46368;-66
2023/01/02 07:05:18;;;;;;;4.33;2.50;;;4.30;59.60;;;;;;5009680;28;46510;-66
2023/01/02 07:07:43;;;;;;;3.90;2.23;;;4.40;59.40;;;;;;5008225;28;46710;-67
2023/01/02 07:10:09;;;;;;;4.03;2.10;;;4.30;59.50;;;;;;5011795;28;46600;-66
2023/01/02 07:12:36;;;;;;;4.13;2.20;;;4.20;59.80;;;;;;5008851;28;46630;-67
2023/01/02 07:15:03;;;;;;;4.57;2.50;;;4.00;60.00;;;;;;5005362;28;46399;-66
2023/01/02 07:17:30;;;;;;;5.30;2.53;;;4.00;60.30;;;;;;5008659;28;46637;-66
2023/01/02 07:19:56;;;;;;;5.37;2.27;;;3.90;60.10;;;;;;5010659;28;46177;-68
2023/01/02 07:22:21;;;;;;;3.60;2.77;;;3.90;60.10;;;;;;5007905;28;47194;-66
2023/01/02 07:24:47;;;;;;;7.03;2.80;;;4.00;60.30;;;;;;5009921;28;46389;-66
2023/01/02 07:27:12;;;;;;;5.00;3.20;;;4.00;59.90;;;;;;5007281;28;46437;-66
2023/01/02 07:29:38;;;;;;;3.50;2.73;;;4.10;59.60;;;;;;5010629;28;46440;-66
2023/01/02 07:32:04;;;;;;;4.20;2.47;;;4.10;59.50;;;;;;5005629;28;47113;-65
2023/01/02 07:34:30;;;;;;;4.57;2.70;;;4.30;58.30;;;;;;4999656;28;46481;-65
2023/01/02 07:36:55;;;;;;;3.30;2.17;;;4.30;59.30;;;;;;5008185;28;46471;-67
2023/01/02 07:39:22;;;;;;;3.50;2.43;;;4.30;59.30;;;;;;5007940;28;46738;-67
2023/01/02 07:41:47;;;;;;;5.00;2.47;;;4.30;59.10;;;;;;5005729;28;47067;-67
2023/01/02 07:44:13;;;;;;;3.80;2.23;;;4.40;59.10;;;;;;5007944;28;46387;-68
2023/01/02 07:46:39;;;;;;;4.47;2.20;;;4.40;58.80;;;;;;5009229;28;46488;-66
2023/01/02 07:49:04;;;;;;;5.00;2.70;;;4.50;58.80;;;;;;5011388;28;45906;-65
2023/01/02 07:51:31;;;;;;;5.63;2.37;;;4.50;58.70;;;;;;5012379;28;47098;-67
2023/01/02 07:53:57;;;;;;;7.78;2.50;;;4.60;58.70;;;;;;5010185;28;46608;-68
2023/01/02 07:56:24;;;;;;;6.00;2.60;;;4.60;58.80;;;;;;5011975;28;46457;-67
2023/01/02 07:58:50;;;;;;;4.57;2.53;;;4.70;58.70;;;;;;5009359;28;46651;-68
2023/01/02 08:01:15;;;;;;;6.23;3.30;;;4.70;58.50;;;;;;5010842;28;47234;-69
2023/01/02 08:03:41;;;;;;;5.60;2.50;;;4.80;58.40;;;;;;5009894;28;46473;-66
2023/01/02 08:06:09;;;;;;;7.10;2.27;;;4.90;58.50;;;;;;5012013;28;46441;-68
2023/01/02 08:08:35;;;;;;;6.70;3.53;;;4.80;58.50;;;;;;5009333;28;46488;-66
2023/01/02 08:11:12;;;;;;;3.30;2.53;;;4.90;58.50;;;;;;5010372;28;46675;-69
2023/01/02 08:13:38;;;;;;;10.97;3.10;;;5.00;58.50;;;;;;5011443;28;46539;-68
2023/01/02 08:16:34;;;;;;;7.60;2.90;;;5.00;58.30;;;;;;5010160;28;46418;-68
2023/01/02 08:19:00;;;;;;;3.60;2.40;;;5.20;58.40;;;;;;5007948;28;46363;-67
2023/01/02 08:21:26;;;;;;;7.23;3.90;;;5.30;58.30;;;;;;5015591;28;49187;-68
2023/01/02 08:23:51;;;;;;;7.97;3.07;;;5.30;58.10;;;;;;5008899;28;46413;-67
2023/01/02 08:26:17;;;;;;;83.83;34.83;;;5.30;58.40;;;;;;5008966;28;46359;-68
2023/01/02 08:28:44;;;;;;;14.07;6.13;;;5.40;58.40;;;;;;5014620;28;46457;-69
2023/01/02 08:31:16;;;;;;;13.83;6.83;;;5.40;58.30;;;;;;5010737;28;46453;-69
2023/01/02 08:33:41;;;;;;;5.77;3.33;;;5.60;58.20;;;;;;5009677;28;46414;-68
2023/01/02 08:36:08;;;;;;;8.00;4.30;;;5.70;57.90;;;;;;5010720;28;47275;-67
2023/01/02 08:38:33;;;;;;;5.13;2.90;;;5.90;58.00;;;;;;5015119;28;46518;-70
2023/01/02 08:40:59;;;;;;;4.40;2.93;;;6.00;57.30;;;;;;5010507;28;47092;-69
2023/01/02 08:43:26;;;;;;;13.73;6.57;;;6.10;57.20;;;;;;5008437;28;46879;-70
2023/01/02 08:45:52;;;;;;;11.53;4.50;;;6.20;57.10;;;;;;5009190;28;46497;-68
2023/01/02 08:48:18;;;;;;;8.23;3.50;;;6.50;57.00;;;;;;5009613;28;46232;-68
2023/01/02 08:50:43;;;;;;;4.93;3.20;;;6.80;56.70;;;;;;5012016;28;46525;-69
2023/01/02 08:53:09;;;;;;;5.00;2.70;;;7.00;57.50;;;;;;5009439;28;46477;-70
2023/01/02 08:55:34;;;;;;;9.10;3.20;;;7.40;56.20;;;;;;5009927;28;46537;-69
2023/01/02 08:58:00;;;;;;;6.57;2.70;;;7.60;55.70;;;;;;5011007;28;46466;-68
2023/01/02 09:00:25;;;;;;;4.80;2.90;;;7.90;55.30;;;;;;5017438;28;46430;-67
2023/01/02 09:02:51;;;;;;;4.13;2.30;;;8.20;55.00;;;;;;5010543;28;46361;-73
2023/01/02 09:05:17;;;;;;;6.40;2.77;;;8.40;55.10;;;;;;5009604;28;46457;-66
2023/01/02 09:07:42;;;;;;;5.30;2.40;;;8.50;55.30;;;;;;5010151;28;46677;-66
2023/01/02 09:10:09;;;;;;;6.37;2.50;;;8.60;55.30;;;;;;5009747;28;46408;-67
2023/01/02 09:12:35;;;;;;;5.77;3.10;;;8.90;55.20;;;;;;5011193;28;46695;-67
2023/01/02 09:15:01;;;;;;;3.90;2.53;;;9.20;55.00;;;;;;5008877;28;46496;-68
2023/01/02 09:17:27;;;;;;;3.90;2.30;;;9.40;54.80;;;;;;5011392;28;46666;-68
2023/01/02 09:19:53;;;;;;;4.80;2.17;;;9.80;54.50;;;;;;5011818;28;46505;-67
2023/01/02 09:22:18;;;;;;;6.77;3.70;;;10.00;52.80;;;;;;5011420;28;46477;-67
2023/01/02 09:24:44;;;;;;;3.40;2.20;;;10.30;51.90;;;;;;5006207;28;46341;-67
2023/01/02 09:27:10;;;;;;;4.23;2.20;;;10.60;52.20;;;;;;5009658;28;46679;-67
2023/01/02 09:29:35;;;;;;;2.87;1.60;;;10.80;52.40;;;;;;5011006;28;46125;-67
2023/01/02 09:32:01;;;;;;;3.60;2.00;;;11.00;51.50;;;;;;5007480;28;46345;-68
2023/01/02 09:34:26;;;;;;;5.50;2.40;;;11.20;51.10;;;;;;5010657;28;48011;-69
2023/01/02 09:36:52;;;;;;;2.90;1.77;;;11.40;50.70;;;;;;5009655;28;46402;-67
2023/01/02 09:39:18;;;;;;;3.10;1.77;;;11.50;50.60;;;;;;5011293;28;46394;-66
2023/01/02 09:41:49;;;;;;;14.53;5.13;;;11.50;50.50;;;;;;5011951;28;46355;-67
2023/01/02 09:44:42;;;;;;;13.83;5.47;;;11.60;50.50;;;;;;5009914;28;47106;-68
2023/01/02 09:47:10;;;;;;;7.23;2.90;;;11.60;50.50;;;;;;5009687;28;46086;-69
2023/01/02 09:49:49;;;;;;;4.40;2.13;;;11.60;50.50;;;;;;5007717;28;47140;-69
2023/01/02 09:52:47;;;;;;;6.20;2.77;;;11.60;50.60;;;;;;5008874;28;46446;-68
2023/01/02 09:55:31;;;;;;;10.20;3.33;;;11.70;50.70;;;;;;4999998;28;46481;-68
2023/01/02 09:57:57;;;;;;;9.50;3.00;;;11.70;50.60;;;;;;5005430;28;46626;-67
2023/01/02 10:00:25;;;;;;;9.10;3.73;;;11.80;50.50;;;;;;5007241;28;46718;-68
2023/01/02 10:03:03;;;;;;;7.80;3.20;;;11.90;50.20;;;;;;5010002;28;46375;-68
2023/01/02 10:05:29;;;;;;;4.33;1.90;;;12.10;49.80;;;;;;5006445;28;46455;-69
2023/01/02 10:08:13;;;;;;;4.27;1.97;;;12.20;49.50;;;;;;5007871;28;46390;-70
2023/01/02 10:10:42;;;;;;;4.20;2.37;;;12.30;49.20;;;;;;5008001;28;46657;-69
2023/01/02 10:13:34;;;;;;;3.77;2.23;;;12.50;48.80;;;;;;5007123;28;46551;-68
2023/01/02 10:16:04;;;;;;;3.50;2.00;;;12.60;48.20;;;;;;5005453;28;46358;-67
2023/01/02 10:18:42;;;;;;;5.13;2.70;;;12.80;48.20;;;;;;5013677;28;46875;-68
2023/01/02 10:21:17;;;;;;;4.70;1.90;;;13.00;47.50;;;;;;5007818;28;46638;-69
2023/01/02 10:24:02;;;;;;;12.40;3.00;;;13.10;47.10;;;;;;5005336;28;46177;-69
2023/01/02 10:26:34;;;;;;;4.83;2.03;;;13.20;46.90;;;;;;5006043;28;46466;-69
2023/01/02 10:29:30;;;;;;;7.50;2.47;;;13.30;46.80;;;;;;5010498;28;47098;-69
2023/01/02 10:32:05;;;;;;;6.20;3.10;;;13.50;46.60;;;;;;5006588;28;46379;-68
2023/01/02 10:35:02;;;;;;;6.47;2.70;;;13.60;46.30;;;;;;5008338;28;46464;-68
2023/01/02 10:37:28;;;;;;;4.23;2.40;;;13.70;46.10;;;;;;5007409;28;46415;-69
2023/01/02 10:39:54;;;;;;;4.63;2.67;;;13.80;46.30;;;;;;5008110;28;46597;-69
2023/01/02 10:42:20;;;;;;;5.10;2.40;;;13.80;46.30;;;;;;5008361;28;47054;-66
2023/01/02 10:44:46;;;;;;;5.60;2.80;;;13.70;46.20;;;;;;5010926;28;46724;-67
2023/01/02 10:47:34;;;;;;;10.50;2.37;;;13.70;46.30;;;;;;5006414;28;47179;-69
2023/01/02 10:50:00;;;;;;;5.07;2.17;;;13.70;46.10;;;;;;5011871;28;46582;-66
2023/01/02 10:52:44;;;;;;;4.60;2.13;;;13.60;46.10;;;;;;5008599;28;46381;-67
2023/01/02 10:55:10;;;;;;;3.10;1.97;;;13.60;45.90;;;;;;5008865;28;46445;-68
2023/01/02 10:57:50;;;;;;;3.80;2.50;;;13.60;46.00;;;;;;5008921;28;45813;-69
2023/01/02 11:00:18;;;;;;;3.37;1.80;;;13.70;45.60;;;;;;5014798;28;46428;-68
2023/01/02 11:02:53;;;;;;;5.27;2.67;;;13.80;45.20;;;;;;5007394;28;46365;-68
2023/01/02 11:05:25;;;;;;;6.13;4.00;;;13.90;44.60;;;;;;5008854;28;46445;-69
2023/01/02 11:07:52;;;;;;;5.00;2.90;;;14.10;44.00;;;;;;5007863;28;46433;-68
2023/01/02 11:10:31;;;;;;;3.20;1.90;;;14.10;43.60;;;;;;5008109;28;47067;-69
2023/01/02 11:13:18;;;;;;;6.60;2.67;;;14.20;42.90;;;;;;5007120;28;46467;-68
2023/01/02 11:15:49;;;;;;;4.47;3.00;;;14.30;42.50;;;;;;5004282;28;46486;-70
2023/01/02 11:18:21;;;;;;;2.93;1.80;;;14.30;42.40;;;;;;5010448;28;46443;-70
2023/01/02 11:20:50;;;;;;;6.50;5.37;;;14.40;42.50;;;;;;5005953;28;46379;-71
2023/01/02 11:23:19;;;;;;;26.17;16.27;;;14.50;42.60;;;;;;5005633;28;46592;-70
2023/01/02 11:25:46;;;;;;;6.87;4.50;;;14.60;42.60;;;;;;5003902;28;46533;-71
2023/01/02 11:28:19;;;;;;;3.60;2.00;;;14.70;42.70;;;;;;5006767;28;46516;-71
2023/01/02 11:30:48;;;;;;;2.83;1.60;;;14.70;42.20;;;;;;5003169;28;46414;-72
2023/01/02 11:33:13;;;;;;;2.50;1.20;;;14.80;42.10;;;;;;5006051;28;46524;-71
2023/01/02 11:35:45;;;;;;;3.30;1.30;;;14.80;41.70;;;;;;5004692;28;46144;-71
2023/01/02 11:38:19;;;;;;;6.80;2.33;;;14.90;41.10;;;;;;5005635;28;46410;-70
2023/01/02 11:40:56;;;;;;;3.77;1.97;;;14.90;40.50;;;;;;5005220;28;45982;-70
2023/01/02 11:43:48;;;;;;;10.80;4.77;;;15.00;40.10;;;;;;5007490;28;48385;-70
2023/01/02 11:46:28;;;;;;;10.63;4.53;;;15.00;40.30;;;;;;5007628;28;46384;-70
2023/01/02 11:49:14;;;;;;;2.53;1.40;;;15.10;40.00;;;;;;5009908;28;46449;-72
2023/01/02 11:51:40;;;;;;;7.20;1.97;;;15.10;39.90;;;;;;5007346;28;46439;-70
2023/01/02 11:54:12;;;;;;;2.87;1.40;;;15.10;39.90;;;;;;5008124;28;46304;-70
2023/01/02 11:56:41;;;;;;;3.70;1.50;;;15.10;39.60;;;;;;5006651;28;46493;-71
2023/01/02 11:59:36;;;;;;;2.60;1.30;;;15.20;39.50;;;;;;5006072;28;46627;-70
2023/01/02 12:02:11;;;;;;;3.30;1.77;;;15.20;39.30;;;;;;5008195;28;46451;-70
2023/01/02 12:04:37;;;;;;;2.60;1.13;;;15.30;39.60;;;;;;5005841;28;47120;-70
2023/01/02 12:07:29;;;;;;;2.30;1.20;;;15.20;39.40;;;;;;5007308;28;46814;-71
2023/01/02 12:10:04;;;;;;;4.03;1.83;;;15.30;39.10;;;;;;5007887;28;46394;-71
2023/01/02 12:12:54;;;;;;;5.50;1.50;;;15.40;38.90;;;;;;5008018;28;46440;-73
2023/01/02 12:15:35;;;;;;;4.30;1.53;;;15.40;38.80;;;;;;5004996;28;46687;-72
2023/01/02 12:18:07;;;;;;;5.87;1.70;;;15.60;38.40;;;;;;5009103;28;46365;-72
2023/01/02 12:20:39;;;;;;;5.23;1.63;;;15.60;38.30;;;;;;5007179;28;46316;-72
2023/01/02 12:23:17;;;;;;;2.73;1.60;;;15.60;38.30;;;;;;5007195;28;46374;-71
2023/01/02 12:25:51;;;;;;;2.93;1.40;;;15.70;38.20;;;;;;5007867;28;47036;-72
2023/01/02 12:28:41;;;;;;;3.77;1.60;;;15.60;38.00;;;;;;5008166;28;45865;-71
2023/01/02 12:31:40;;;;;;;3.10;1.37;;;15.60;37.90;;;;;;5005876;28;46420;-73
2023/01/02 12:34:11;;;;;;;4.57;1.67;;;15.40;38.20;;;;;;5005174;28;46575;-71
2023/01/02 12:36:51;;;;;;;5.90;1.87;;;15.30;38.50;;;;;;5007916;28;46553;-70
2023/01/02 12:39:19;;;;;;;4.23;1.20;;;15.40;38.50;;;;;;5011486;28;46396;-71
2023/01/02 12:42:06;;;;;;;5.83;1.67;;;15.40;38.40;;;;;;5007927;28;46399;-70
2023/01/02 12:44:40;;;;;;;4.67;1.60;;;15.40;38.20;;;;;;5008728;28;46512;-69
2023/01/02 12:47:25;;;;;;;6.07;1.80;;;15.40;38.10;;;;;;5009748;28;46831;-69
2023/01/02 12:50:05;;;;;;;5.53;1.60;;;15.50;38.00;;;;;;5010468;28;47034;-69
2023/01/02 12:52:46;;;;;;;2.40;1.20;;;15.50;37.90;;;;;;5011183;28;46476;-69
2023/01/02 12:55:24;;;;;;;5.60;1.30;;;15.50;37.40;;;;;;5011241;28;46482;-72
2023/01/02 12:58:08;;;;;;;2.40;1.23;;;15.40;37.40;;;;;;5008918;28;46714;-70
2023/01/02 13:00:43;;;;;;;3.00;1.27;;;15.20;37.70;;;;;;5014590;28;46517;-71
2023/01/02 13:03:36;;;;;;;3.33;1.50;;;15.10;39.50;;;;;;5014777;28;46641;-71
2023/01/02 13:06:13;;;;;;;5.60;1.60;;;15.10;38.10;;;;;;5009398;28;46577;-71
2023/01/02 13:08:56;;;;;;;4.70;1.20;;;15.10;38.30;;;;;;5012033;28;46689;-72
2023/01/02 13:11:32;;;;;;;3.80;1.30;;;15.00;37.90;;;;;;5011524;28;46739;-72
2023/01/02 13:14:01;;;;;;;3.23;1.70;;;14.80;37.40;;;;;;5008686;28;46402;-70
2023/01/02 13:16:27;;;;;;;3.40;1.50;;;14.70;37.60;;;;;;5010754;28;46832;-72